Altona, New York
Current Conditions -  °F | °C
As of 5:53 AM on Thursday 27 Nov 2014 (Local Time) from KPBG Reporting Station
Overcast Overcast  
Wind Chill: -8°   Ceiling: 5000
Heat Index: -3°   Visibility: 10mi
Dew Point: -5°   Wind: 9mph
Humidity: 85%   Direction: 350°N
Pressure: 29.99"   Gusts: NA
Location:  44.89°N, 73.66°W
Report Text: KPBG 271053Z AUTO 35008KT 10SM FEW027 OVC050 M03/M05 A2999 RMK AO2 SNB31E44 SLP158 P0000 T10281050
Loading
Personal Weather Stations






























Interactive Weather Map New forecast layout! Learn more

10-Day Weather Forecast

Advertisements
Track Severe Weather on mobile